Time;durP1;ratioP1;P1;durP2;ratioP2;P2;SDS_P1;SDS_P2;PMS_P1;PMS_P2;Temp;Humidity;BMP_temperature;BMP_pressure;BME280_temperature;BME280_humidity;BME280_pressure;Samples;Min_cycle;Max_cycle;Signal;HPM_P1;HPM_P2
2022/06/15 00:02:43;;;;;;;4.30;3.17;;;;;;;;;;6192569;28;20229;-72
2022/06/15 00:06:04;;;;;;;3.40;3.10;;;;;;;;;;6189476;28;20253;-72
2022/06/15 00:09:25;;;;;;;5.63;3.97;;;;;;;;;;6194651;28;20316;-72
2022/06/15 00:12:46;;;;;;;4.33;2.83;;;;;;;;;;6191322;28;20320;-73
2022/06/15 00:16:07;;;;;;;4.47;3.30;;;;;;;;;;6194197;28;20237;-73
2022/06/15 00:19:29;;;;;;;3.53;3.17;;;;;;;;;;6194282;28;20226;-72
2022/06/15 00:22:49;;;;;;;3.47;3.10;;;;;;;;;;6191661;28;20229;-72
2022/06/15 00:26:10;;;;;;;4.03;3.30;;;;;;;;;;6190557;28;20236;-72
2022/06/15 00:29:33;;;;;;;4.17;3.37;;;;;;;;;;6189417;28;20236;-74
2022/06/15 00:32:54;;;;;;;6.27;3.40;;;;;;;;;;6179651;28;20324;-72
2022/06/15 00:36:17;;;;;;;5.97;4.00;;;;;;;;;;6192098;28;20237;-72
2022/06/15 00:39:38;;;;;;;6.20;3.67;;;;;;;;;;6190584;28;20256;-72
2022/06/15 00:42:59;;;;;;;3.33;2.83;;;;;;;;;;6193135;28;20233;-74
2022/06/15 00:46:22;;;;;;;3.40;2.83;;;;;;;;;;6194209;28;20243;-72
2022/06/15 00:49:45;;;;;;;3.47;3.17;;;;;;;;;;6192890;28;20234;-72
2022/06/15 00:53:07;;;;;;;3.37;2.90;;;;;;;;;;6177844;28;20264;-73
2022/06/15 00:56:29;;;;;;;3.63;2.93;;;;;;;;;;6195162;28;20233;-72
2022/06/15 00:59:53;;;;;;;4.47;3.70;;;;;;;;;;6192498;28;20240;-72
2022/06/15 01:03:14;;;;;;;4.70;3.63;;;;;;;;;;6192534;28;20229;-73
2022/06/15 01:06:38;;;;;;;6.13;3.43;;;;;;;;;;6191396;28;20925;-73
2022/06/15 01:10:04;;;;;;;4.57;2.83;;;;;;;;;;6196764;28;20229;-73
2022/06/15 01:13:34;;;;;;;5.50;3.27;;;;;;;;;;6180279;28;20233;-72
2022/06/15 01:16:57;;;;;;;3.87;3.47;;;;;;;;;;6180479;28;20233;-73
2022/06/15 01:20:26;;;;;;;3.07;2.77;;;;;;;;;;6177462;28;20233;-72
2022/06/15 01:23:57;;;;;;;3.13;2.83;;;;;;;;;;6178090;28;20248;-72
2022/06/15 01:27:30;;;;;;;5.40;3.90;;;;;;;;;;6185848;28;20228;-73
2022/06/15 01:30:54;;;;;;;3.73;3.40;;;;;;;;;;6184961;28;20233;-73
2022/06/15 01:34:22;;;;;;;4.00;3.27;;;;;;;;;;6165476;28;20234;-72
2022/06/15 01:37:46;;;;;;;3.93;2.90;;;;;;;;;;6170640;28;20230;-73
2022/06/15 01:41:10;;;;;;;5.03;3.80;;;;;;;;;;6181215;28;20233;-72
2022/06/15 01:44:32;;;;;;;3.73;3.20;;;;;;;;;;6167786;28;20287;-72
2022/06/15 01:47:57;;;;;;;4.73;3.13;;;;;;;;;;6169549;28;20738;-71
2022/06/15 01:51:22;;;;;;;5.90;3.87;;;;;;;;;;6167065;28;21158;-73
2022/06/15 01:54:44;;;;;;;3.37;2.80;;;;;;;;;;6181977;28;20344;-73
2022/06/15 01:58:07;;;;;;;3.50;3.20;;;;;;;;;;6182369;28;20218;-73
2022/06/15 02:01:31;;;;;;;5.30;3.27;;;;;;;;;;6169578;28;20245;-73
2022/06/15 02:05:00;;;;;;;2.70;2.50;;;;;;;;;;6183115;28;20630;-73
2022/06/15 02:08:24;;;;;;;6.83;3.17;;;;;;;;;;6177002;28;20253;-73
2022/06/15 02:11:45;;;;;;;4.03;3.17;;;;;;;;;;6186441;28;20565;-73
2022/06/15 02:15:07;;;;;;;4.90;4.00;;;;;;;;;;6189279;28;20233;-72
2022/06/15 02:18:28;;;;;;;5.67;3.70;;;;;;;;;;6188834;28;20228;-73
2022/06/15 02:21:53;;;;;;;3.83;3.00;;;;;;;;;;6184012;28;20236;-72
2022/06/15 02:25:17;;;;;;;4.60;3.30;;;;;;;;;;6172409;28;20631;-73
2022/06/15 02:28:40;;;;;;;4.80;3.23;;;;;;;;;;6180485;28;20237;-73
2022/06/15 02:32:01;;;;;;;4.40;3.40;;;;;;;;;;6176787;28;20276;-73
2022/06/15 02:35:22;;;;;;;4.27;3.53;;;;;;;;;;6171735;28;20229;-73
2022/06/15 02:38:49;;;;;;;7.50;3.83;;;;;;;;;;6189824;28;20504;-73
2022/06/15 02:42:23;;;;;;;4.83;3.73;;;;;;;;;;6188262;28;20316;-73
2022/06/15 02:45:49;;;;;;;5.63;3.33;;;;;;;;;;6179112;28;20237;-74
2022/06/15 02:49:14;;;;;;;3.30;3.00;;;;;;;;;;6179593;28;20533;-73
2022/06/15 02:52:39;;;;;;;3.37;2.87;;;;;;;;;;6171163;28;20230;-73
2022/06/15 02:56:02;;;;;;;5.47;4.07;;;;;;;;;;6178299;28;20601;-73
2022/06/15 02:59:23;;;;;;;5.03;3.87;;;;;;;;;;6177804;28;20547;-72
2022/06/15 03:02:44;;;;;;;3.70;3.30;;;;;;;;;;6181005;28;20237;-73
2022/06/15 03:06:08;;;;;;;5.87;5.27;;;;;;;;;;6176969;28;20612;-72
2022/06/15 03:09:29;;;;;;;3.73;3.43;;;;;;;;;;6179368;28;20257;-73
2022/06/15 03:12:51;;;;;;;5.63;3.17;;;;;;;;;;6186602;28;22635;-73
2022/06/15 03:16:12;;;;;;;5.10;4.10;;;;;;;;;;6164246;28;20720;-72
2022/06/15 03:19:36;;;;;;;4.63;3.40;;;;;;;;;;6183502;28;20237;-72
2022/06/15 03:22:58;;;;;;;5.57;3.37;;;;;;;;;;6155959;28;20241;-73
2022/06/15 03:26:19;;;;;;;4.10;3.27;;;;;;;;;;6197146;28;20316;-72
2022/06/15 03:29:42;;;;;;;3.53;3.23;;;;;;;;;;6194947;28;20237;-73
2022/06/15 03:33:05;;;;;;;8.43;4.50;;;;;;;;;;6170071;28;20233;-73
2022/06/15 03:36:26;;;;;;;7.20;3.77;;;;;;;;;;6169820;28;20230;-73
2022/06/15 03:39:49;;;;;;;4.13;3.73;;;;;;;;;;6198475;28;20230;-72
2022/06/15 03:43:12;;;;;;;5.90;3.80;;;;;;;;;;6193841;28;20228;-73
2022/06/15 03:46:34;;;;;;;5.87;4.30;;;;;;;;;;6181009;28;20298;-72
2022/06/15 03:50:03;;;;;;;3.93;3.57;;;;;;;;;;6194224;28;20495;-72
2022/06/15 03:53:24;;;;;;;3.67;3.30;;;;;;;;;;6193455;28;20229;-73
2022/06/15 03:56:46;;;;;;;6.23;3.73;;;;;;;;;;6184089;28;20226;-73
2022/06/15 04:00:17;;;;;;;3.57;3.27;;;;;;;;;;6179844;28;20233;-72
2022/06/15 04:03:45;;;;;;;4.33;3.90;;;;;;;;;;6192591;28;20617;-72
2022/06/15 04:08:34;;;;;;;4.03;3.63;;;;;;;;;;6194934;28;20233;-73
2022/06/15 04:10:51;;;;;;;4.03;3.47;;;;;;;;;;6191994;28;20241;-73
2022/06/15 04:14:13;;;;;;;3.80;3.00;;;;;;;;;;6194535;28;20253;-72
2022/06/15 04:17:37;;;;;;;5.03;3.60;;;;;;;;;;6184672;28;20229;-73
2022/06/15 04:21:20;;;;;;;20.00;18.03;;;;;;;;;;6192126;28;20233;-73
2022/06/15 04:24:42;;;;;;;8.00;7.20;;;;;;;;;;6177196;28;20248;-72
2022/06/15 04:28:04;;;;;;;5.18;3.92;;;;;;;;;;6178198;28;20580;-73
2022/06/15 04:31:24;;;;;;;5.17;4.67;;;;;;;;;;6171617;28;20506;-73
2022/06/15 04:34:48;;;;;;;4.77;3.83;;;;;;;;;;6175543;28;20237;-73
2022/06/15 04:38:11;;;;;;;4.30;3.50;;;;;;;;;;6171674;28;20234;-72
2022/06/15 04:41:43;;;;;;;4.80;3.43;;;;;;;;;;6157697;28;20229;-72
2022/06/15 04:45:04;;;;;;;4.80;3.20;;;;;;;;;;6170777;28;20237;-72
2022/06/15 04:48:27;;;;;;;6.77;3.43;;;;;;;;;;6185225;28;20312;-72
2022/06/15 04:51:50;;;;;;;5.17;3.13;;;;;;;;;;6177570;28;20296;-73
2022/06/15 04:55:13;;;;;;;9.60;3.57;;;;;;;;;;6179509;28;20233;-73
2022/06/15 04:58:36;;;;;;;7.17;3.73;;;;;;;;;;6194300;28;20256;-72
2022/06/15 05:01:58;;;;;;;7.87;6.40;;;;;;;;;;6183860;28;20717;-73
2022/06/15 05:05:19;;;;;;;8.87;8.07;;;;;;;;;;6184915;28;20249;-73
2022/06/15 05:08:41;;;;;;;7.80;6.87;;;;;;;;;;6193326;28;20237;-72
2022/06/15 05:12:03;;;;;;;6.07;3.67;;;;;;;;;;6190208;28;20353;-73
2022/06/15 05:15:25;;;;;;;5.07;3.40;;;;;;;;;;6187985;28;20240;-73
2022/06/15 05:18:51;;;;;;;3.80;2.90;;;;;;;;;;6190667;28;20233;-74
2022/06/15 05:22:17;;;;;;;6.27;2.97;;;;;;;;;;6178897;28;20489;-74
2022/06/15 05:25:38;;;;;;;5.77;2.30;;;;;;;;;;6195463;28;20543;-74
2022/06/15 05:29:00;;;;;;;6.97;2.80;;;;;;;;;;6182015;28;20232;-74
2022/06/15 05:32:21;;;;;;;2.70;2.00;;;;;;;;;;6183898;28;20622;-74
2022/06/15 05:35:42;;;;;;;9.93;3.13;;;;;;;;;;6194506;28;20229;-71
2022/06/15 05:39:04;;;;;;;3.67;2.17;;;;;;;;;;6194206;28;20236;-70
2022/06/15 05:42:28;;;;;;;4.57;2.47;;;;;;;;;;6182420;28;20233;-74
2022/06/15 05:45:55;;;;;;;5.60;2.20;;;;;;;;;;6176533;28;20237;-73
2022/06/15 05:49:15;;;;;;;3.30;2.73;;;;;;;;;;6195915;28;20221;-72
2022/06/15 05:52:36;;;;;;;8.40;3.43;;;;;;;;;;6195683;28;20232;-72
2022/06/15 05:55:57;;;;;;;5.70;3.07;;;;;;;;;;6178790;28;20568;-72
2022/06/15 05:59:18;;;;;;;4.20;2.33;;;;;;;;;;6197751;28;20623;-74
2022/06/15 06:02:40;;;;;;;6.40;2.70;;;;;;;;;;6198163;28;20249;-72
2022/06/15 06:06:01;;;;;;;3.67;2.57;;;;;;;;;;6195424;28;20237;-72
2022/06/15 06:09:21;;;;;;;5.05;2.50;;;;;;;;;;6196156;28;20233;-73
2022/06/15 06:12:42;;;;;;;3.73;2.40;;;;;;;;;;6196019;28;20224;-76
2022/06/15 06:16:02;;;;;;;4.50;2.75;;;;;;;;;;6195707;28;20241;-75
2022/06/15 06:19:25;;;;;;;6.63;2.57;;;;;;;;;;6196718;28;20229;-73
2022/06/15 06:22:45;;;;;;;10.45;6.05;;;;;;;;;;6200172;28;20233;-71
2022/06/15 06:26:06;;;;;;;10.90;9.80;;;;;;;;;;6198387;28;20245;-75
2022/06/15 06:29:28;;;;;;;10.82;8.48;;;;;;;;;;6195851;28;20237;-72
2022/06/15 06:32:48;;;;;;;4.10;3.00;;;;;;;;;;6198456;28;20233;-72
2022/06/15 06:36:14;;;;;;;5.35;3.05;;;;;;;;;;6201323;28;20236;-71
2022/06/15 06:39:35;;;;;;;4.85;2.88;;;;;;;;;;6205043;28;20614;-70
2022/06/15 06:42:55;;;;;;;4.93;3.28;;;;;;;;;;6210940;28;20252;-73
2022/06/15 06:46:17;;;;;;;5.03;3.20;;;;;;;;;;6205276;28;20316;-72
2022/06/15 06:49:37;;;;;;;5.65;2.58;;;;;;;;;;6211540;28;20225;-74
2022/06/15 06:53:00;;;;;;;5.45;3.00;;;;;;;;;;6205206;28;20233;-72
2022/06/15 06:56:20;;;;;;;5.18;2.60;;;;;;;;;;6205828;28;20221;-71
2022/06/15 06:59:41;;;;;;;4.40;3.17;;;;;;;;;;6207813;28;20233;-71
2022/06/15 07:03:03;;;;;;;3.53;2.42;;;;;;;;;;6202699;28;20606;-73
2022/06/15 07:06:23;;;;;;;7.07;2.95;;;;;;;;;;6204172;28;20229;-73
2022/06/15 07:09:45;;;;;;;4.70;2.65;;;;;;;;;;6206532;28;20225;-73
2022/06/15 07:13:06;;;;;;;4.75;2.78;;;;;;;;;;6210787;28;20229;-72
2022/06/15 07:16:27;;;;;;;3.40;2.00;;;;;;;;;;6202108;28;20249;-72
2022/06/15 07:19:48;;;;;;;3.17;1.70;;;;;;;;;;6207068;28;20245;-75
2022/06/15 07:23:09;;;;;;;3.90;2.55;;;;;;;;;;6202045;28;20240;-74
2022/06/15 07:26:32;;;;;;;3.78;2.20;;;;;;;;;;6196540;28;21022;-75
2022/06/15 07:29:55;;;;;;;3.45;1.60;;;;;;;;;;6195532;28;20233;-72
2022/06/15 07:33:16;;;;;;;3.85;1.80;;;;;;;;;;6198784;28;20229;-72
2022/06/15 07:36:38;;;;;;;4.60;2.00;;;;;;;;;;6197092;28;20245;-71
2022/06/15 07:39:58;;;;;;;4.25;1.70;;;;;;;;;;6202093;28;20237;-71
2022/06/15 07:43:20;;;;;;;3.75;1.80;;;;;;;;;;6201338;28;20326;-72
2022/06/15 07:46:41;;;;;;;3.08;1.70;;;;;;;;;;6200639;28;20233;-73
2022/06/15 07:50:01;;;;;;;2.78;1.73;;;;;;;;;;6190277;28;20232;-70
2022/06/15 07:53:21;;;;;;;2.47;1.83;;;;;;;;;;6203352;28;20252;-73
2022/06/15 07:56:42;;;;;;;2.55;2.08;;;;;;;;;;6205592;28;20229;-71
2022/06/15 08:00:05;;;;;;;4.82;2.00;;;;;;;;;;6207103;28;20618;-70
2022/06/15 08:03:33;;;;;;;2.72;2.03;;;;;;;;;;6201941;28;20241;-70
2022/06/15 08:06:53;;;;;;;3.70;1.40;;;;;;;;;;6207054;28;20316;-69
2022/06/15 08:10:16;;;;;;;3.38;1.90;;;;;;;;;;6206435;28;20245;-71
2022/06/15 08:13:37;;;;;;;2.45;1.70;;;;;;;;;;6205445;28;20241;-72
2022/06/15 08:17:00;;;;;;;2.85;1.70;;;;;;;;;;6205477;28;20248;-73
2022/06/15 08:20:22;;;;;;;3.03;1.92;;;;;;;;;;6207057;28;20228;-70
2022/06/15 08:23:46;;;;;;;2.80;1.85;;;;;;;;;;6206305;28;20237;-70
2022/06/15 08:27:06;;;;;;;1.92;1.40;;;;;;;;;;6202036;28;20517;-68
2022/06/15 08:30:27;;;;;;;3.47;1.90;;;;;;;;;;6202918;28;20309;-72
2022/06/15 08:33:49;;;;;;;3.90;1.92;;;;;;;;;;6182904;28;20222;-74
2022/06/15 08:37:11;;;;;;;4.45;2.58;;;;;;;;;;6183464;28;20233;-73
2022/06/15 08:40:35;;;;;;;2.70;2.22;;;;;;;;;;6184017;28;20217;-71
2022/06/15 08:44:02;;;;;;;2.10;1.70;;;;;;;;;;6183004;28;20241;-73
2022/06/15 08:47:31;;;;;;;2.55;1.60;;;;;;;;;;6179800;28;20809;-72
2022/06/15 08:51:06;;;;;;;2.60;1.15;;;;;;;;;;6204410;28;20264;-74
2022/06/15 08:54:29;;;;;;;2.67;1.55;;;;;;;;;;6205192;28;20916;-74
2022/06/15 08:57:52;;;;;;;3.53;1.63;;;;;;;;;;6198559;28;20233;-71
2022/06/15 09:01:16;;;;;;;3.05;1.75;;;;;;;;;;6202792;28;20233;-70
2022/06/15 09:04:41;;;;;;;3.63;2.00;;;;;;;;;;6204180;28;20560;-74
2022/06/15 09:08:11;;;;;;;1.48;1.38;;;;;;;;;;6205914;28;20811;-75
2022/06/15 09:11:37;;;;;;;3.15;2.30;;;;;;;;;;6204181;28;20240;-75
2022/06/15 09:15:03;;;;;;;2.33;1.73;;;;;;;;;;6202511;28;20232;-72
2022/06/15 09:18:26;;;;;;;4.38;1.73;;;;;;;;;;6207230;28;20301;-71
2022/06/15 09:21:49;;;;;;;3.10;1.70;;;;;;;;;;6203767;28;20626;-73
2022/06/15 09:25:13;;;;;;;4.03;1.60;;;;;;;;;;6206104;28;20238;-71
2022/06/15 09:28:36;;;;;;;2.22;1.98;;;;;;;;;;6202422;28;20225;-70
2022/06/15 09:31:58;;;;;;;4.93;2.28;;;;;;;;;;6199469;28;20229;-73
2022/06/15 09:35:23;;;;;;;3.47;2.53;;;;;;;;;;6204201;28;20261;-75
2022/06/15 09:38:44;;;;;;;3.75;2.35;;;;;;;;;;6204105;28;20233;-72
2022/06/15 09:42:13;;;;;;;5.65;3.05;;;;;;;;;;6203207;28;20237;-72
2022/06/15 09:45:37;;;;;;;3.28;1.85;;;;;;;;;;6206536;28;20244;-76
2022/06/15 09:49:03;;;;;;;3.08;2.08;;;;;;;;;;6204277;28;20237;-70
2022/06/15 09:52:27;;;;;;;3.55;2.10;;;;;;;;;;6205328;28;20606;-72
2022/06/15 09:55:49;;;;;;;4.20;2.03;;;;;;;;;;6202130;28;20221;-70
2022/06/15 09:59:12;;;;;;;2.33;1.80;;;;;;;;;;6207772;28;20610;-69
2022/06/15 10:02:34;;;;;;;3.13;1.83;;;;;;;;;;6203173;28;20229;-71
2022/06/15 10:05:57;;;;;;;4.20;1.95;;;;;;;;;;6200311;28;20233;-72
2022/06/15 10:09:19;;;;;;;3.08;1.65;;;;;;;;;;6203923;28;20258;-75
2022/06/15 10:12:59;;;;;;;3.63;2.45;;;;;;;;;;6211524;28;20229;-71
2022/06/15 10:16:24;;;;;;;2.95;1.75;;;;;;;;;;6206147;28;20315;-71
2022/06/15 10:19:46;;;;;;;3.00;2.13;;;;;;;;;;6208456;28;20556;-70
2022/06/15 10:23:16;;;;;;;2.35;2.00;;;;;;;;;;6210495;28;20270;-70
2022/06/15 10:26:40;;;;;;;7.32;2.28;;;;;;;;;;6206418;28;20260;-72
2022/06/15 10:30:02;;;;;;;3.25;1.73;;;;;;;;;;6211237;28;20241;-71
2022/06/15 10:33:24;;;;;;;2.53;1.40;;;;;;;;;;6194994;28;20323;-70
2022/06/15 10:36:51;;;;;;;7.05;3.15;;;;;;;;;;6210425;28;20229;-72
2022/06/15 10:40:23;;;;;;;5.20;2.13;;;;;;;;;;6211509;28;20221;-72
2022/06/15 10:43:44;;;;;;;2.45;1.77;;;;;;;;;;6181060;28;20221;-70
2022/06/15 10:47:07;;;;;;;2.20;1.90;;;;;;;;;;6211969;28;20233;-72
2022/06/15 10:50:31;;;;;;;5.55;2.33;;;;;;;;;;6210270;28;20340;-73
2022/06/15 10:53:54;;;;;;;3.17;2.30;;;;;;;;;;6208331;28;20225;-71
2022/06/15 11:04:35;;;;;;;3.08;2.50;;;;;;;;;;6206982;28;20230;-71
2022/06/15 11:07:59;;;;;;;4.60;2.58;;;;;;;;;;6208656;28;20767;-71
2022/06/15 11:11:24;;;;;;;4.50;2.15;;;;;;;;;;6207791;28;20234;-71
2022/06/15 11:14:55;;;;;;;4.25;2.30;;;;;;;;;;6204179;28;20627;-69
2022/06/15 11:18:20;;;;;;;3.10;2.33;;;;;;;;;;6195553;28;20234;-70
2022/06/15 11:21:43;;;;;;;3.53;2.15;;;;;;;;;;6204340;28;20256;-69
2022/06/15 11:25:10;;;;;;;4.13;2.35;;;;;;;;;;6205069;28;20221;-69
2022/06/15 11:28:33;;;;;;;4.00;2.25;;;;;;;;;;6178382;28;20876;-72
2022/06/15 11:31:55;;;;;;;2.63;2.08;;;;;;;;;;6180365;28;20230;-71
2022/06/15 11:35:23;;;;;;;3.75;2.33;;;;;;;;;;6180311;28;20325;-70
2022/06/15 11:38:47;;;;;;;5.78;2.13;;;;;;;;;;6172954;28;20594;-69
2022/06/15 11:42:11;;;;;;;2.08;1.83;;;;;;;;;;6195323;28;20237;-70
2022/06/15 11:45:35;;;;;;;3.53;2.28;;;;;;;;;;6199108;28;20230;-70
2022/06/15 11:49:02;;;;;;;2.80;2.30;;;;;;;;;;6186623;28;20237;-70
2022/06/15 11:52:33;;;;;;;8.48;2.53;;;;;;;;;;6204765;28;20224;-71
2022/06/15 11:55:57;;;;;;;10.70;2.75;;;;;;;;;;6199451;28;20236;-71
2022/06/15 11:59:27;;;;;;;4.85;2.20;;;;;;;;;;6200343;28;20543;-70
2022/06/15 12:02:54;;;;;;;2.92;1.90;;;;;;;;;;6193001;28;20764;-70
2022/06/15 12:06:19;;;;;;;2.65;2.25;;;;;;;;;;6207598;28;20224;-68
2022/06/15 12:09:45;;;;;;;3.60;2.22;;;;;;;;;;6200152;28;20241;-72
2022/06/15 12:13:09;;;;;;;4.47;2.17;;;;;;;;;;6194322;28;20595;-72
2022/06/15 12:16:33;;;;;;;3.20;2.10;;;;;;;;;;6195095;28;20229;-71
2022/06/15 12:19:56;;;;;;;3.75;2.00;;;;;;;;;;6199333;28;20725;-72
2022/06/15 12:23:23;;;;;;;2.80;2.05;;;;;;;;;;6183375;28;20230;-75
2022/06/15 12:26:49;;;;;;;3.28;2.25;;;;;;;;;;6194701;28;20665;-74
2022/06/15 12:30:16;;;;;;;3.38;2.30;;;;;;;;;;6189811;28;20233;-73
2022/06/15 12:33:40;;;;;;;4.20;2.05;;;;;;;;;;6192233;28;20679;-73
2022/06/15 12:37:03;;;;;;;4.80;2.85;;;;;;;;;;6191028;28;20234;-71
2022/06/15 12:40:28;;;;;;;3.80;2.30;;;;;;;;;;6185875;28;20626;-73
2022/06/15 12:43:48;;;;;;;2.47;2.00;;;;;;;;;;6176811;28;20230;-71
2022/06/15 12:47:10;;;;;;;3.50;2.67;;;;;;;;;;6171261;28;20325;-71
2022/06/15 12:50:41;;;;;;;4.10;2.63;;;;;;;;;;6176160;28;20241;-71
2022/06/15 12:54:05;;;;;;;3.85;2.35;;;;;;;;;;6174125;28;20221;-72
2022/06/15 12:57:28;;;;;;;4.07;2.75;;;;;;;;;;6172987;28;20404;-72
2022/06/15 13:00:52;;;;;;;6.55;3.03;;;;;;;;;;6175927;28;20226;-72
2022/06/15 13:04:20;;;;;;;4.32;2.88;;;;;;;;;;6179922;28;20226;-72
2022/06/15 13:07:43;;;;;;;2.53;2.28;;;;;;;;;;6178276;28;20248;-71
2022/06/15 13:11:11;;;;;;;3.72;2.38;;;;;;;;;;6175909;28;21085;-72
2022/06/15 13:14:33;;;;;;;3.85;2.53;;;;;;;;;;6175441;28;20237;-72
2022/06/15 13:18:11;;;;;;;5.30;2.90;;;;;;;;;;6176748;28;20234;-71
2022/06/15 13:21:51;;;;;;;3.88;2.28;;;;;;;;;;6175184;28;20221;-71
2022/06/15 13:25:16;;;;;;;3.35;2.28;;;;;;;;;;6193957;28;20871;-71
2022/06/15 13:28:39;;;;;;;2.45;1.88;;;;;;;;;;6190191;28;20666;-71
2022/06/15 13:32:01;;;;;;;2.40;2.20;;;;;;;;;;6192958;28;20312;-71
2022/06/15 13:35:23;;;;;;;3.20;2.22;;;;;;;;;;6182066;28;20607;-72
2022/06/15 13:38:44;;;;;;;5.82;2.15;;;;;;;;;;6198864;28;20229;-72
2022/06/15 13:42:23;;;;;;;4.75;2.10;;;;;;;;;;6195344;28;20245;-71
2022/06/15 13:45:44;;;;;;;3.60;1.95;;;;;;;;;;6187224;28;20361;-71
2022/06/15 13:49:05;;;;;;;1.88;1.67;;;;;;;;;;6189722;28;20352;-72
2022/06/15 13:52:28;;;;;;;1.92;1.40;;;;;;;;;;6193492;28;20221;-71
2022/06/15 13:55:55;;;;;;;2.95;1.70;;;;;;;;;;6189009;28;20311;-70
2022/06/15 13:59:22;;;;;;;2.35;2.00;;;;;;;;;;6179393;28;20228;-69
2022/06/15 14:02:48;;;;;;;3.47;1.83;;;;;;;;;;6191501;28;20320;-72
2022/06/15 14:06:20;;;;;;;2.22;1.85;;;;;;;;;;6188387;28;20229;-77
2022/06/15 14:09:44;;;;;;;3.70;1.95;;;;;;;;;;6197292;28;20244;-76
2022/06/15 14:13:21;;;;;;;3.45;2.20;;;;;;;;;;6204818;28;20817;-76
2022/06/15 14:17:06;;;;;;;2.13;1.77;;;;;;;;;;6190527;28;20229;-76
2022/06/15 14:20:32;;;;;;;5.32;3.05;;;;;;;;;;6174124;28;20313;-76
2022/06/15 14:23:53;;;;;;;4.15;2.30;;;;;;;;;;6175649;28;20620;-75
2022/06/15 14:27:23;;;;;;;3.10;1.70;;;;;;;;;;6176275;28;20240;-74
2022/06/15 14:30:44;;;;;;;2.95;1.90;;;;;;;;;;6196741;28;20697;-76
2022/06/15 14:34:07;;;;;;;2.95;2.00;;;;;;;;;;6202159;28;20225;-77
2022/06/15 14:37:29;;;;;;;4.47;2.08;;;;;;;;;;6184273;28;20237;-76
2022/06/15 14:40:51;;;;;;;4.78;2.08;;;;;;;;;;6182542;28;20249;-76
2022/06/15 14:44:21;;;;;;;3.10;1.88;;;;;;;;;;6181998;28;20308;-76
2022/06/15 14:47:50;;;;;;;2.38;1.73;;;;;;;;;;6199628;28;20933;-77
2022/06/15 14:51:12;;;;;;;4.15;2.90;;;;;;;;;;6189489;28;21195;-76
2022/06/15 14:54:34;;;;;;;2.47;1.80;;;;;;;;;;6184635;28;20238;-77
2022/06/15 14:58:08;;;;;;;2.45;1.90;;;;;;;;;;6181693;28;20317;-76
2022/06/15 15:01:29;;;;;;;3.53;2.20;;;;;;;;;;6183079;28;20229;-77
2022/06/15 15:04:53;;;;;;;2.30;1.70;;;;;;;;;;6180562;28;20238;-77
2022/06/15 15:08:19;;;;;;;3.22;1.80;;;;;;;;;;6182198;28;20237;-76
2022/06/15 15:11:42;;;;;;;2.75;1.73;;;;;;;;;;6185425;28;20237;-76
2022/06/15 15:15:04;;;;;;;3.20;1.48;;;;;;;;;;6185791;28;20234;-76
2022/06/15 15:18:25;;;;;;;3.83;1.95;;;;;;;;;;6177255;28;20276;-76
2022/06/15 15:21:46;;;;;;;3.08;1.67;;;;;;;;;;6185314;28;20242;-76
2022/06/15 15:25:08;;;;;;;3.67;1.80;;;;;;;;;;6191704;28;20260;-75
2022/06/15 15:36:11;;;;;;;2.45;1.70;;;;;;;;;;6206754;28;20228;-76
2022/06/15 15:39:31;;;;;;;3.03;2.30;;;;;;;;;;6199077;28;20233;-75
2022/06/15 15:42:53;;;;;;;2.58;1.73;;;;;;;;;;6193629;28;20316;-74
2022/06/15 15:46:15;;;;;;;2.33;1.98;;;;;;;;;;6192136;28;20309;-74
2022/06/15 15:49:37;;;;;;;5.85;1.80;;;;;;;;;;6203718;28;20221;-74
2022/06/15 15:52:57;;;;;;;4.55;1.88;;;;;;;;;;6195441;28;20320;-75
2022/06/15 15:56:18;;;;;;;3.15;2.08;;;;;;;;;;6183097;28;21458;-74
2022/06/15 15:59:40;;;;;;;2.97;1.92;;;;;;;;;;6203289;28;20544;-74
2022/06/15 16:03:06;;;;;;;3.30;1.83;;;;;;;;;;6193560;28;20324;-74
2022/06/15 16:06:26;;;;;;;2.85;2.17;;;;;;;;;;6195194;28;20249;-76
2022/06/15 16:09:48;;;;;;;2.72;1.80;;;;;;;;;;6199013;28;20309;-74
2022/06/15 16:13:09;;;;;;;2.13;1.83;;;;;;;;;;6195478;28;20497;-75
2022/06/15 16:16:30;;;;;;;20.92;18.83;;;;;;;;;;6192169;28;20328;-75
2022/06/15 16:19:53;;;;;;;6.53;5.93;;;;;;;;;;6193911;28;20226;-75
2022/06/15 16:23:14;;;;;;;11.82;8.43;;;;;;;;;;6198900;28;20530;-75
2022/06/15 16:26:35;;;;;;;17.13;15.38;;;;;;;;;;6205117;28;20621;-74
2022/06/15 16:29:57;;;;;;;3.60;2.92;;;;;;;;;;6207248;28;20257;-74
2022/06/15 16:33:18;;;;;;;10.63;9.00;;;;;;;;;;6201269;28;20331;-75
2022/06/15 16:36:40;;;;;;;14.23;12.57;;;;;;;;;;6199761;28;20224;-74
2022/06/15 16:40:01;;;;;;;2.67;2.47;;;;;;;;;;6204358;28;20336;-75
2022/06/15 16:43:22;;;;;;;3.08;1.83;;;;;;;;;;6205282;28;20225;-75
2022/06/15 16:46:42;;;;;;;3.45;1.55;;;;;;;;;;6189249;28;20509;-75
2022/06/15 16:50:03;;;;;;;21.10;19.20;;;;;;;;;;6194557;28;20626;-75
2022/06/15 16:53:25;;;;;;;15.93;14.25;;;;;;;;;;6195549;28;21774;-75
2022/06/15 16:56:47;;;;;;;9.45;7.45;;;;;;;;;;6193131;28;20229;-75
2022/06/15 17:00:08;;;;;;;13.65;12.45;;;;;;;;;;6196903;28;20225;-76
2022/06/15 17:03:29;;;;;;;7.85;7.15;;;;;;;;;;6196430;28;20233;-74
2022/06/15 17:06:51;;;;;;;4.28;2.33;;;;;;;;;;6188877;28;20229;-74
2022/06/15 17:10:13;;;;;;;3.15;1.80;;;;;;;;;;6194819;28;20233;-75
2022/06/15 17:13:34;;;;;;;3.47;1.80;;;;;;;;;;6190263;28;20230;-74
2022/06/15 17:16:55;;;;;;;8.57;6.00;;;;;;;;;;6204327;28;20229;-75
2022/06/15 17:20:16;;;;;;;7.68;6.25;;;;;;;;;;6199097;28;20548;-74
2022/06/15 17:23:38;;;;;;;4.93;3.08;;;;;;;;;;6201838;28;20225;-73
2022/06/15 17:27:00;;;;;;;4.32;2.80;;;;;;;;;;6199183;28;20240;-74
2022/06/15 17:30:20;;;;;;;3.63;2.50;;;;;;;;;;6199505;28;20858;-74
2022/06/15 17:33:41;;;;;;;4.63;3.72;;;;;;;;;;6190833;28;20229;-74
2022/06/15 17:37:02;;;;;;;8.25;7.30;;;;;;;;;;6177449;28;20229;-75
2022/06/15 17:40:23;;;;;;;23.38;20.60;;;;;;;;;;6192589;28;20237;-75
2022/06/15 17:43:45;;;;;;;14.05;11.57;;;;;;;;;;6174590;28;20313;-74
2022/06/15 17:47:06;;;;;;;7.60;6.57;;;;;;;;;;6168946;28;21072;-76
2022/06/15 17:50:26;;;;;;;8.90;7.28;;;;;;;;;;6164352;28;20237;-74
2022/06/15 17:53:47;;;;;;;4.65;4.22;;;;;;;;;;6169396;28;20233;-74
2022/06/15 17:57:08;;;;;;;6.53;5.25;;;;;;;;;;6185137;28;20234;-75
2022/06/15 18:00:30;;;;;;;6.55;5.38;;;;;;;;;;6175578;28;20230;-74
2022/06/15 18:03:53;;;;;;;9.63;8.73;;;;;;;;;;6172346;28;20266;-74
2022/06/15 18:07:13;;;;;;;5.00;4.55;;;;;;;;;;6171944;28;20225;-75
2022/06/15 18:10:35;;;;;;;3.85;3.45;;;;;;;;;;6194811;28;20233;-74
2022/06/15 18:13:57;;;;;;;4.97;2.33;;;;;;;;;;6193980;28;20229;-74
2022/06/15 18:17:21;;;;;;;2.67;2.00;;;;;;;;;;6190167;28;20232;-74
2022/06/15 18:20:42;;;;;;;3.05;2.05;;;;;;;;;;6191891;28;20225;-76
2022/06/15 18:24:06;;;;;;;6.10;2.53;;;;;;;;;;6188412;28;20245;-76
2022/06/15 18:27:27;;;;;;;14.45;12.95;;;;;;;;;;6199454;28;20229;-74
2022/06/15 18:30:48;;;;;;;5.63;5.13;;;;;;;;;;6170011;28;20234;-78
2022/06/15 18:34:11;;;;;;;7.97;7.25;;;;;;;;;;6169845;28;20655;-75
2022/06/15 18:37:34;;;;;;;13.77;12.30;;;;;;;;;;6171366;28;20233;-71
2022/06/15 18:40:55;;;;;;;8.10;6.85;;;;;;;;;;6198540;28;20237;-70
2022/06/15 18:47:55;;;;;;;5.88;4.35;;;;;;;;;;6183574;28;20229;-70
2022/06/15 18:51:17;;;;;;;6.10;5.43;;;;;;;;;;6181988;28;20225;-72
2022/06/15 18:54:41;;;;;;;5.65;5.15;;;;;;;;;;6170253;28;20241;-67
2022/06/15 18:58:03;;;;;;;4.22;3.75;;;;;;;;;;6168326;28;20230;-70
2022/06/15 19:01:24;;;;;;;4.90;3.08;;;;;;;;;;6194915;28;20275;-70
2022/06/15 19:04:44;;;;;;;6.07;3.15;;;;;;;;;;6194456;28;20502;-69
2022/06/15 19:08:07;;;;;;;3.92;2.83;;;;;;;;;;6175357;28;20569;-69
2022/06/15 19:11:28;;;;;;;5.28;4.00;;;;;;;;;;6182424;28;20698;-69
2022/06/15 19:14:48;;;;;;;11.90;9.88;;;;;;;;;;6173684;28;20606;-71
2022/06/15 19:18:09;;;;;;;10.00;8.55;;;;;;;;;;6181782;28;20241;-71
2022/06/15 19:21:30;;;;;;;6.13;5.10;;;;;;;;;;6186620;28;21148;-69
2022/06/15 19:24:52;;;;;;;17.17;13.15;;;;;;;;;;6194222;28;20233;-72
2022/06/15 19:28:13;;;;;;;9.32;8.35;;;;;;;;;;6172599;28;20320;-70
2022/06/15 19:31:34;;;;;;;14.00;11.18;;;;;;;;;;6189426;28;20238;-69
2022/06/15 19:34:56;;;;;;;6.32;5.72;;;;;;;;;;6194846;28;20230;-69
2022/06/15 19:38:17;;;;;;;10.05;8.05;;;;;;;;;;6187059;28;20252;-69
2022/06/15 19:41:41;;;;;;;3.75;3.30;;;;;;;;;;6190319;28;20217;-70
2022/06/15 19:45:01;;;;;;;3.60;2.92;;;;;;;;;;6193145;28;20245;-69
2022/06/15 19:48:23;;;;;;;3.47;2.65;;;;;;;;;;6197639;28;20602;-69
2022/06/15 19:51:45;;;;;;;3.45;2.70;;;;;;;;;;6193069;28;20799;-71
2022/06/15 19:55:06;;;;;;;3.08;2.60;;;;;;;;;;6196715;28;20539;-69
2022/06/15 19:58:28;;;;;;;3.83;2.47;;;;;;;;;;6193903;28;20241;-71
2022/06/15 20:01:50;;;;;;;4.72;3.00;;;;;;;;;;6190379;28;20249;-70
2022/06/15 20:05:11;;;;;;;4.93;2.72;;;;;;;;;;6192940;28;20632;-69
2022/06/15 20:08:32;;;;;;;3.63;2.85;;;;;;;;;;6190325;28;20237;-69
2022/06/15 20:11:53;;;;;;;4.35;2.75;;;;;;;;;;6199568;28;20229;-70
2022/06/15 20:15:15;;;;;;;2.50;2.20;;;;;;;;;;6194710;28;20320;-69
2022/06/15 20:18:36;;;;;;;2.65;2.05;;;;;;;;;;6194607;28;20231;-70
2022/06/15 20:21:57;;;;;;;3.30;2.30;;;;;;;;;;6188150;28;20248;-71
2022/06/15 20:25:18;;;;;;;3.10;1.90;;;;;;;;;;6192129;28;20260;-70
2022/06/15 20:28:41;;;;;;;3.70;2.65;;;;;;;;;;6192517;28;20234;-70
2022/06/15 20:32:04;;;;;;;2.15;1.95;;;;;;;;;;6193660;28;20324;-69
2022/06/15 20:35:25;;;;;;;4.35;2.35;;;;;;;;;;6203140;28;20319;-70